sensor_id;sensor_type;location;lat;lon;timestamp;pressure;altitude;pressure_sealevel;temperature;humidity
12868;BME280;33517;49.866;8.320;2023-08-08T00:02:33;100519.78;;;15.35;77.04
12868;BME280;33517;49.866;8.320;2023-08-08T00:05:27;100521.19;;;15.31;77.32
12868;BME280;33517;49.866;8.320;2023-08-08T00:08:18;100516.22;;;15.21;77.33
12868;BME280;33517;49.866;8.320;2023-08-08T00:11:10;100517.94;;;15.08;77.05
12868;BME280;33517;49.866;8.320;2023-08-08T00:14:02;100521.91;;;14.97;77.12
12868;BME280;33517;49.866;8.320;2023-08-08T00:16:55;100519.78;;;14.86;77.59
12868;BME280;33517;49.866;8.320;2023-08-08T00:19:46;100509.94;;;14.80;78.18
12868;BME280;33517;49.866;8.320;2023-08-08T00:22:40;100510.66;;;14.67;78.52
12868;BME280;33517;49.866;8.320;2023-08-08T00:25:32;100510.56;;;14.61;78.58
12868;BME280;33517;49.866;8.320;2023-08-08T00:28:24;100506.03;;;14.55;79.45
12868;BME280;33517;49.866;8.320;2023-08-08T00:31:15;100503.19;;;14.56;78.85
12868;BME280;33517;49.866;8.320;2023-08-08T00:34:10;100507.72;;;14.62;79.27
12868;BME280;33517;49.866;8.320;2023-08-08T00:37:02;100512.78;;;14.57;79.72
12868;BME280;33517;49.866;8.320;2023-08-08T00:39:55;100510.25;;;14.49;79.14
12868;BME280;33517;49.866;8.320;2023-08-08T00:42:47;100505.06;;;14.41;79.12
12868;BME280;33517;49.866;8.320;2023-08-08T00:45:41;100504.81;;;14.36;79.33
12868;BME280;33517;49.866;8.320;2023-08-08T00:48:33;100503.53;;;14.32;80.11
12868;BME280;33517;49.866;8.320;2023-08-08T00:51:25;100499.97;;;14.25;79.55
12868;BME280;33517;49.866;8.320;2023-08-08T00:54:17;100500.72;;;14.19;79.69
12868;BME280;33517;49.866;8.320;2023-08-08T00:57:11;100504.56;;;14.17;80.47
12868;BME280;33517;49.866;8.320;2023-08-08T01:00:05;100496.38;;;14.12;80.00
12868;BME280;33517;49.866;8.320;2023-08-08T01:02:56;100503.84;;;14.08;80.85
12868;BME280;33517;49.866;8.320;2023-08-08T01:06:04;100500.09;;;14.17;81.55
12868;BME280;33517;49.866;8.320;2023-08-08T01:08:58;100500.53;;;14.35;81.44
12868;BME280;33517;49.866;8.320;2023-08-08T01:11:52;100493.69;;;14.41;81.22
12868;BME280;33517;49.866;8.320;2023-08-08T01:14:46;100499.97;;;14.25;83.46
12868;BME280;33517;49.866;8.320;2023-08-08T01:17:38;100493.06;;;14.10;83.50
12868;BME280;33517;49.866;8.320;2023-08-08T01:20:31;100497.94;;;14.06;82.98
12868;BME280;33517;49.866;8.320;2023-08-08T01:23:30;100498.28;;;14.03;83.18
12868;BME280;33517;49.866;8.320;2023-08-08T01:26:26;100500.28;;;14.01;82.94
12868;BME280;33517;49.866;8.320;2023-08-08T01:29:18;100497.00;;;13.99;82.87
12868;BME280;33517;49.866;8.320;2023-08-08T01:32:10;100495.56;;;13.97;82.88
12868;BME280;33517;49.866;8.320;2023-08-08T01:35:02;100497.78;;;13.93;82.31
12868;BME280;33517;49.866;8.320;2023-08-08T01:37:57;100494.19;;;13.86;82.48
12868;BME280;33517;49.866;8.320;2023-08-08T01:40:53;100490.84;;;13.77;83.01
12868;BME280;33517;49.866;8.320;2023-08-08T01:43:48;100489.28;;;13.68;82.83
12868;BME280;33517;49.866;8.320;2023-08-08T01:46:40;100493.84;;;13.60;82.60
12868;BME280;33517;49.866;8.320;2023-08-08T01:49:32;100501.53;;;13.55;82.71
12868;BME280;33517;49.866;8.320;2023-08-08T01:52:24;100498.25;;;13.53;83.62
12868;BME280;33517;49.866;8.320;2023-08-08T01:55:16;100495.94;;;13.50;83.63
12868;BME280;33517;49.866;8.320;2023-08-08T01:58:07;100499.75;;;13.47;83.95
12868;BME280;33517;49.866;8.320;2023-08-08T02:01:01;100501.69;;;13.39;83.98
12868;BME280;33517;49.866;8.320;2023-08-08T02:03:53;100493.38;;;13.27;84.06
12868;BME280;33517;49.866;8.320;2023-08-08T02:06:45;100482.59;;;13.14;83.65
12868;BME280;33517;49.866;8.320;2023-08-08T02:09:37;100496.06;;;13.05;84.50
12868;BME280;33517;49.866;8.320;2023-08-08T02:12:29;100487.91;;;12.91;84.36
12868;BME280;33517;49.866;8.320;2023-08-08T02:15:21;100488.31;;;12.80;85.14
12868;BME280;33517;49.866;8.320;2023-08-08T02:18:14;100483.09;;;12.72;85.36
12868;BME280;33517;49.866;8.320;2023-08-08T02:21:06;100483.44;;;12.69;85.60
12868;BME280;33517;49.866;8.320;2023-08-08T02:23:58;100481.50;;;12.63;86.29
12868;BME280;33517;49.866;8.320;2023-08-08T02:26:49;100479.22;;;12.60;86.07
12868;BME280;33517;49.866;8.320;2023-08-08T02:29:41;100488.97;;;12.60;86.36
12868;BME280;33517;49.866;8.320;2023-08-08T02:32:33;100480.41;;;12.58;86.72
12868;BME280;33517;49.866;8.320;2023-08-08T02:35:26;100479.47;;;12.51;86.81
12868;BME280;33517;49.866;8.320;2023-08-08T02:38:18;100478.34;;;12.45;86.24
12868;BME280;33517;49.866;8.320;2023-08-08T02:41:10;100478.69;;;12.42;87.55
12868;BME280;33517;49.866;8.320;2023-08-08T02:44:02;100476.59;;;12.38;87.29
12868;BME280;33517;49.866;8.320;2023-08-08T02:46:54;100482.09;;;12.28;87.87
12868;BME280;33517;49.866;8.320;2023-08-08T02:49:45;100475.53;;;12.24;87.32
12868;BME280;33517;49.866;8.320;2023-08-08T02:52:39;100473.06;;;12.23;87.81
12868;BME280;33517;49.866;8.320;2023-08-08T02:55:31;100470.41;;;12.23;88.51
12868;BME280;33517;49.866;8.320;2023-08-08T02:58:22;100468.94;;;12.20;87.89
12868;BME280;33517;49.866;8.320;2023-08-08T03:01:14;100467.13;;;12.21;89.09
12868;BME280;33517;49.866;8.320;2023-08-08T03:04:06;100468.66;;;12.15;88.70
12868;BME280;33517;49.866;8.320;2023-08-08T03:06:58;100463.72;;;12.12;88.54
12868;BME280;33517;49.866;8.320;2023-08-08T03:09:53;100453.03;;;12.06;89.52
12868;BME280;33517;49.866;8.320;2023-08-08T03:12:45;100468.22;;;12.03;89.72
12868;BME280;33517;49.866;8.320;2023-08-08T03:15:37;100473.00;;;12.00;89.38
12868;BME280;33517;49.866;8.320;2023-08-08T03:18:29;100474.50;;;11.94;89.47
12868;BME280;33517;49.866;8.320;2023-08-08T03:21:21;100467.28;;;11.88;89.18
12868;BME280;33517;49.866;8.320;2023-08-08T03:24:13;100465.00;;;11.85;89.82
12868;BME280;33517;49.866;8.320;2023-08-08T03:27:06;100461.72;;;11.83;90.00
12868;BME280;33517;49.866;8.320;2023-08-08T03:29:58;100455.97;;;11.80;89.94
12868;BME280;33517;49.866;8.320;2023-08-08T03:32:50;100461.59;;;11.77;90.51
12868;BME280;33517;49.866;8.320;2023-08-08T03:35:42;100460.28;;;11.73;89.85
12868;BME280;33517;49.866;8.320;2023-08-08T03:38:34;100473.13;;;11.68;90.19
12868;BME280;33517;49.866;8.320;2023-08-08T03:41:26;100483.19;;;11.64;90.64
12868;BME280;33517;49.866;8.320;2023-08-08T03:44:19;100485.16;;;11.62;90.19
12868;BME280;33517;49.866;8.320;2023-08-08T03:47:11;100485.69;;;11.58;90.74
12868;BME280;33517;49.866;8.320;2023-08-08T03:50:03;100479.09;;;11.54;90.79
12868;BME280;33517;49.866;8.320;2023-08-08T03:52:55;100484.69;;;11.51;90.44
12868;BME280;33517;49.866;8.320;2023-08-08T03:55:47;100480.75;;;11.47;90.80
12868;BME280;33517;49.866;8.320;2023-08-08T03:58:38;100481.09;;;11.44;91.07
12868;BME280;33517;49.866;8.320;2023-08-08T04:01:32;100478.78;;;11.41;90.48
12868;BME280;33517;49.866;8.320;2023-08-08T04:04:24;100474.69;;;11.38;90.62
12868;BME280;33517;49.866;8.320;2023-08-08T04:07:16;100469.75;;;11.35;90.62
12868;BME280;33517;49.866;8.320;2023-08-08T04:10:08;100463.69;;;11.35;91.16
12868;BME280;33517;49.866;8.320;2023-08-08T04:13:00;100470.41;;;11.37;92.20
12868;BME280;33517;49.866;8.320;2023-08-08T04:15:52;100466.44;;;11.41;91.57
12868;BME280;33517;49.866;8.320;2023-08-08T04:18:45;100467.75;;;11.45;92.59
12868;BME280;33517;49.866;8.320;2023-08-08T04:21:38;100472.53;;;11.50;91.77
12868;BME280;33517;49.866;8.320;2023-08-08T04:24:30;100466.59;;;11.56;92.78
12868;BME280;33517;49.866;8.320;2023-08-08T04:27:22;100470.50;;;11.60;92.39
12868;BME280;33517;49.866;8.320;2023-08-08T04:30:14;100469.84;;;11.66;92.81
12868;BME280;33517;49.866;8.320;2023-08-08T04:33:06;100475.75;;;11.76;93.18
12868;BME280;33517;49.866;8.320;2023-08-08T04:35:59;100477.22;;;11.86;92.77
12868;BME280;33517;49.866;8.320;2023-08-08T04:38:51;100481.44;;;11.95;92.58
12868;BME280;33517;49.866;8.320;2023-08-08T04:41:43;100486.03;;;12.01;91.99
12868;BME280;33517;49.866;8.320;2023-08-08T04:44:35;100481.06;;;12.07;92.12
12868;BME280;33517;49.866;8.320;2023-08-08T04:47:27;100477.06;;;12.11;93.05
12868;BME280;33517;49.866;8.320;2023-08-08T04:50:18;100474.59;;;12.17;92.32
12868;BME280;33517;49.866;8.320;2023-08-08T04:53:12;100475.84;;;12.21;92.70
12868;BME280;33517;49.866;8.320;2023-08-08T04:56:04;100477.97;;;12.26;93.14
12868;BME280;33517;49.866;8.320;2023-08-08T04:58:56;100474.81;;;12.30;92.65
12868;BME280;33517;49.866;8.320;2023-08-08T05:01:48;100473.78;;;12.39;91.83
12868;BME280;33517;49.866;8.320;2023-08-08T05:04:39;100478.63;;;12.50;91.92
12868;BME280;33517;49.866;8.320;2023-08-08T05:07:31;100472.13;;;12.61;91.99
12868;BME280;33517;49.866;8.320;2023-08-08T05:10:25;100462.00;;;12.72;90.52
12868;BME280;33517;49.866;8.320;2023-08-08T05:13:16;100468.19;;;12.79;91.05
12868;BME280;33517;49.866;8.320;2023-08-08T05:16:08;100463.50;;;12.89;90.47
12868;BME280;33517;49.866;8.320;2023-08-08T05:19:00;100464.69;;;13.02;91.49
12868;BME280;33517;49.866;8.320;2023-08-08T05:21:53;100462.13;;;13.16;91.25
12868;BME280;33517;49.866;8.320;2023-08-08T05:24:44;100461.47;;;13.29;91.29
12868;BME280;33517;49.866;8.320;2023-08-08T05:27:38;100457.00;;;13.44;91.19
12868;BME280;33517;49.866;8.320;2023-08-08T05:30:29;100452.38;;;13.60;90.38
12868;BME280;33517;49.866;8.320;2023-08-08T05:33:21;100452.16;;;13.76;90.79
12868;BME280;33517;49.866;8.320;2023-08-08T05:36:13;100454.41;;;13.94;89.99
12868;BME280;33517;49.866;8.320;2023-08-08T05:39:05;100458.88;;;14.08;89.67
12868;BME280;33517;49.866;8.320;2023-08-08T05:41:57;100457.28;;;14.28;90.11
12868;BME280;33517;49.866;8.320;2023-08-08T05:44:50;100461.31;;;14.45;88.94
12868;BME280;33517;49.866;8.320;2023-08-08T05:47:42;100460.88;;;14.63;87.68
12868;BME280;33517;49.866;8.320;2023-08-08T05:50:35;100458.63;;;14.81;86.96
12868;BME280;33517;49.866;8.320;2023-08-08T05:53:27;100440.81;;;15.03;86.79
12868;BME280;33517;49.866;8.320;2023-08-08T05:56:19;100450.81;;;15.28;85.62
12868;BME280;33517;49.866;8.320;2023-08-08T05:59:11;100451.66;;;15.69;84.65
12868;BME280;33517;49.866;8.320;2023-08-08T06:02:05;100448.94;;;16.71;81.38
12868;BME280;33517;49.866;8.320;2023-08-08T06:04:57;100450.66;;;20.33;69.93
12868;BME280;33517;49.866;8.320;2023-08-08T06:07:49;100450.00;;;22.11;61.35
12868;BME280;33517;49.866;8.320;2023-08-08T06:10:41;100457.56;;;23.79;55.25
12868;BME280;33517;49.866;8.320;2023-08-08T06:13:33;100463.66;;;24.98;52.30
12868;BME280;33517;49.866;8.320;2023-08-08T06:16:24;100467.34;;;25.61;48.90
12868;BME280;33517;49.866;8.320;2023-08-08T06:19:18;100457.88;;;26.30;48.08
12868;BME280;33517;49.866;8.320;2023-08-08T06:22:09;100468.69;;;26.25;47.07
12868;BME280;33517;49.866;8.320;2023-08-08T06:25:01;100475.72;;;24.64;47.07
12868;BME280;33517;49.866;8.320;2023-08-08T06:27:54;100466.81;;;26.25;44.60
12868;BME280;33517;49.866;8.320;2023-08-08T06:30:45;100462.28;;;26.56;42.82
12868;BME280;33517;49.866;8.320;2023-08-08T06:33:37;100467.41;;;27.33;41.62
12868;BME280;33517;49.866;8.320;2023-08-08T06:36:30;100465.56;;;26.98;41.00
12868;BME280;33517;49.866;8.320;2023-08-08T06:39:22;100461.34;;;27.76;40.79
12868;BME280;33517;49.866;8.320;2023-08-08T06:42:14;100463.38;;;26.90;41.72
12868;BME280;33517;49.866;8.320;2023-08-08T06:45:07;100457.38;;;27.54;40.56
12868;BME280;33517;49.866;8.320;2023-08-08T06:48:00;100457.31;;;26.13;41.49
12868;BME280;33517;49.866;8.320;2023-08-08T06:50:52;100456.84;;;27.31;39.79
12868;BME280;33517;49.866;8.320;2023-08-08T06:53:45;100459.00;;;28.62;38.42
12868;BME280;33517;49.866;8.320;2023-08-08T06:56:37;100465.31;;;29.44;36.38
12868;BME280;33517;49.866;8.320;2023-08-08T06:59:28;100462.88;;;28.85;38.91
12868;BME280;33517;49.866;8.320;2023-08-08T07:02:20;100459.94;;;29.10;37.25
12868;BME280;33517;49.866;8.320;2023-08-08T07:05:12;100450.81;;;30.19;35.81
12868;BME280;33517;49.866;8.320;2023-08-08T07:08:04;100464.00;;;30.31;34.48
12868;BME280;33517;49.866;8.320;2023-08-08T07:10:58;100454.31;;;29.82;34.78
12868;BME280;33517;49.866;8.320;2023-08-08T07:13:50;100454.56;;;29.57;33.96
12868;BME280;33517;49.866;8.320;2023-08-08T07:16:42;100455.03;;;29.12;34.14
12868;BME280;33517;49.866;8.320;2023-08-08T07:19:35;100453.78;;;29.33;33.54
12868;BME280;33517;49.866;8.320;2023-08-08T07:22:27;100450.97;;;28.81;33.81
12868;BME280;33517;49.866;8.320;2023-08-08T07:25:19;100450.88;;;29.25;34.23
12868;BME280;33517;49.866;8.320;2023-08-08T07:28:12;100453.44;;;29.63;33.51
12868;BME280;33517;49.866;8.320;2023-08-08T07:31:05;100448.88;;;29.06;33.57
12868;BME280;33517;49.866;8.320;2023-08-08T07:33:57;100442.56;;;27.01;37.37
12868;BME280;33517;49.866;8.320;2023-08-08T07:36:49;100443.59;;;26.39;38.06
12868;BME280;33517;49.866;8.320;2023-08-08T07:39:41;100439.22;;;25.41;39.34
12868;BME280;33517;49.866;8.320;2023-08-08T07:42:33;100426.88;;;25.55;39.40
12868;BME280;33517;49.866;8.320;2023-08-08T07:45:26;100431.38;;;25.40;39.17
12868;BME280;33517;49.866;8.320;2023-08-08T07:48:18;100429.34;;;26.54;37.50
12868;BME280;33517;49.866;8.320;2023-08-08T07:51:09;100422.09;;;26.70;37.96
12868;BME280;33517;49.866;8.320;2023-08-08T07:54:02;100425.97;;;25.40;37.91
12868;BME280;33517;49.866;8.320;2023-08-08T07:56:56;100441.13;;;25.09;39.53
12868;BME280;33517;49.866;8.320;2023-08-08T07:59:47;100432.31;;;26.78;36.45
12868;BME280;33517;49.866;8.320;2023-08-08T08:02:42;100425.03;;;29.56;32.39
12868;BME280;33517;49.866;8.320;2023-08-08T08:05:34;100433.34;;;30.62;30.46
12868;BME280;33517;49.866;8.320;2023-08-08T08:08:26;100422.75;;;30.29;31.39
12868;BME280;33517;49.866;8.320;2023-08-08T08:11:18;100427.69;;;28.07;33.74
12868;BME280;33517;49.866;8.320;2023-08-08T08:14:10;100431.75;;;26.56;35.48
12868;BME280;33517;49.866;8.320;2023-08-08T08:17:02;100427.25;;;25.74;37.09
12868;BME280;33517;49.866;8.320;2023-08-08T08:19:55;100438.94;;;25.01;38.71
12868;BME280;33517;49.866;8.320;2023-08-08T08:22:47;100429.88;;;25.17;38.59
12868;BME280;33517;49.866;8.320;2023-08-08T08:25:39;100432.34;;;24.87;38.91
12868;BME280;33517;49.866;8.320;2023-08-08T08:28:31;100417.53;;;24.58;38.48
12868;BME280;33517;49.866;8.320;2023-08-08T08:31:23;100412.78;;;25.02;39.35
12868;BME280;33517;49.866;8.320;2023-08-08T08:34:15;100407.19;;;26.97;36.16
12868;BME280;33517;49.866;8.320;2023-08-08T08:37:08;100399.34;;;26.45;36.95
12868;BME280;33517;49.866;8.320;2023-08-08T08:40:00;100413.66;;;27.01;36.31
12868;BME280;33517;49.866;8.320;2023-08-08T08:42:54;100401.50;;;26.59;36.36
12868;BME280;33517;49.866;8.320;2023-08-08T08:45:50;100412.28;;;26.23;36.71
12868;BME280;33517;49.866;8.320;2023-08-08T08:48:43;100414.41;;;26.06;37.42
12868;BME280;33517;49.866;8.320;2023-08-08T08:51:35;100414.88;;;25.83;38.31
12868;BME280;33517;49.866;8.320;2023-08-08T08:54:29;100405.75;;;26.04;38.16
12868;BME280;33517;49.866;8.320;2023-08-08T08:57:21;100417.66;;;25.41;38.89
12868;BME280;33517;49.866;8.320;2023-08-08T09:00:14;100423.41;;;26.87;37.27
12868;BME280;33517;49.866;8.320;2023-08-08T09:03:06;100413.47;;;27.77;36.02
12868;BME280;33517;49.866;8.320;2023-08-08T09:05:59;100415.69;;;27.65;36.18
12868;BME280;33517;49.866;8.320;2023-08-08T09:08:51;100417.44;;;26.40;36.84
12868;BME280;33517;49.866;8.320;2023-08-08T09:11:46;100407.19;;;26.97;37.30
12868;BME280;33517;49.866;8.320;2023-08-08T09:14:40;100409.56;;;28.03;35.54
12868;BME280;33517;49.866;8.320;2023-08-08T09:17:32;100416.63;;;27.89;36.22
12868;BME280;33517;49.866;8.320;2023-08-08T09:20:25;100412.03;;;28.38;35.53
12868;BME280;33517;49.866;8.320;2023-08-08T09:23:18;100410.50;;;28.94;34.37
12868;BME280;33517;49.866;8.320;2023-08-08T09:26:13;100422.16;;;29.24;34.50
12868;BME280;33517;49.866;8.320;2023-08-08T09:29:09;100422.66;;;30.52;33.23
12868;BME280;33517;49.866;8.320;2023-08-08T09:32:02;100407.09;;;31.85;30.46
12868;BME280;33517;49.866;8.320;2023-08-08T09:34:55;100418.94;;;32.74;28.73
12868;BME280;33517;49.866;8.320;2023-08-08T09:37:47;100422.09;;;29.52;32.07
12868;BME280;33517;49.866;8.320;2023-08-08T09:40:40;100416.13;;;29.32;34.02
12868;BME280;33517;49.866;8.320;2023-08-08T09:43:32;100403.63;;;30.15;33.14
12868;BME280;33517;49.866;8.320;2023-08-08T09:46:25;100407.25;;;28.64;33.76
12868;BME280;33517;49.866;8.320;2023-08-08T09:49:17;100400.03;;;28.49;34.08
12868;BME280;33517;49.866;8.320;2023-08-08T09:52:09;100400.69;;;28.98;33.79
12868;BME280;33517;49.866;8.320;2023-08-08T09:55:03;100405.03;;;28.99;33.89
12868;BME280;33517;49.866;8.320;2023-08-08T09:57:55;100400.84;;;28.11;34.59
12868;BME280;33517;49.866;8.320;2023-08-08T10:00:49;100407.84;;;27.63;35.89
12868;BME280;33517;49.866;8.320;2023-08-08T10:03:43;100397.69;;;27.99;35.16
12868;BME280;33517;49.866;8.320;2023-08-08T10:06:35;100403.94;;;28.72;34.89
12868;BME280;33517;49.866;8.320;2023-08-08T10:09:28;100397.19;;;30.30;33.24
12868;BME280;33517;49.866;8.320;2023-08-08T10:12:20;100393.72;;;30.24;32.82
12868;BME280;33517;49.866;8.320;2023-08-08T10:15:14;100400.34;;;30.37;31.97
12868;BME280;33517;49.866;8.320;2023-08-08T10:18:06;100397.53;;;28.91;33.84
12868;BME280;33517;49.866;8.320;2023-08-08T10:21:00;100401.47;;;29.51;32.93
12868;BME280;33517;49.866;8.320;2023-08-08T10:24:02;100387.44;;;29.26;33.39
12868;BME280;33517;49.866;8.320;2023-08-08T10:26:56;100392.44;;;28.51;34.99
12868;BME280;33517;49.866;8.320;2023-08-08T10:29:51;100390.28;;;28.48;34.46
12868;BME280;33517;49.866;8.320;2023-08-08T10:32:44;100383.69;;;29.87;32.11
12868;BME280;33517;49.866;8.320;2023-08-08T10:35:37;100395.94;;;30.41;31.71
12868;BME280;33517;49.866;8.320;2023-08-08T10:38:41;100395.50;;;29.02;32.41
12868;BME280;33517;49.866;8.320;2023-08-08T10:41:44;100384.91;;;28.77;33.06
12868;BME280;33517;49.866;8.320;2023-08-08T10:44:40;100374.66;;;29.92;32.92
12868;BME280;33517;49.866;8.320;2023-08-08T10:47:34;100389.72;;;28.85;33.61
12868;BME280;33517;49.866;8.320;2023-08-08T10:50:27;100375.09;;;28.57;33.76
12868;BME280;33517;49.866;8.320;2023-08-08T10:53:22;100379.22;;;28.45;34.31
12868;BME280;33517;49.866;8.320;2023-08-08T10:56:18;100388.56;;;28.29;34.22
12868;BME280;33517;49.866;8.320;2023-08-08T10:59:15;100380.63;;;28.37;33.40
12868;BME280;33517;49.866;8.320;2023-08-08T11:02:09;100370.66;;;27.20;35.11
12868;BME280;33517;49.866;8.320;2023-08-08T11:05:01;100382.34;;;26.25;36.43
12868;BME280;33517;49.866;8.320;2023-08-08T11:07:54;100382.81;;;25.30;38.24
12868;BME280;33517;49.866;8.320;2023-08-08T11:10:51;100387.75;;;25.01;38.75
12868;BME280;33517;49.866;8.320;2023-08-08T11:13:44;100376.69;;;25.44;37.77
12868;BME280;33517;49.866;8.320;2023-08-08T11:16:36;100377.03;;;25.53;38.19
12868;BME280;33517;49.866;8.320;2023-08-08T11:19:28;100384.22;;;26.19;37.91
12868;BME280;33517;49.866;8.320;2023-08-08T11:22:21;100384.44;;;26.03;36.91
12868;BME280;33517;49.866;8.320;2023-08-08T11:25:14;100380.28;;;25.60;37.51
12868;BME280;33517;49.866;8.320;2023-08-08T11:28:06;100377.22;;;25.41;38.25
12868;BME280;33517;49.866;8.320;2023-08-08T11:30:59;100360.16;;;25.93;37.58
12868;BME280;33517;49.866;8.320;2023-08-08T11:33:52;100372.06;;;26.12;37.36
12868;BME280;33517;49.866;8.320;2023-08-08T11:36:45;100364.53;;;26.69;36.59
12868;BME280;33517;49.866;8.320;2023-08-08T11:39:37;100364.28;;;26.40;36.68
12868;BME280;33517;49.866;8.320;2023-08-08T11:42:29;100367.50;;;26.83;37.04
12868;BME280;33517;49.866;8.320;2023-08-08T11:45:22;100359.97;;;27.64;36.52
12868;BME280;33517;49.866;8.320;2023-08-08T11:48:15;100366.94;;;27.75;36.25
12868;BME280;33517;49.866;8.320;2023-08-08T11:51:08;100373.97;;;26.92;36.80
12868;BME280;33517;49.866;8.320;2023-08-08T11:54:02;100366.97;;;26.91;36.47
12868;BME280;33517;49.866;8.320;2023-08-08T11:56:54;100360.22;;;26.48;37.20
12868;BME280;33517;49.866;8.320;2023-08-08T11:59:48;100360.22;;;26.43;36.38
12868;BME280;33517;49.866;8.320;2023-08-08T12:02:40;100361.56;;;26.35;36.83
12868;BME280;33517;49.866;8.320;2023-08-08T12:05:37;100359.06;;;27.04;36.60
12868;BME280;33517;49.866;8.320;2023-08-08T12:08:30;100360.56;;;27.56;36.01
12868;BME280;33517;49.866;8.320;2023-08-08T12:11:22;100363.66;;;28.27;34.63
12868;BME280;33517;49.866;8.320;2023-08-08T12:14:14;100359.56;;;28.34;34.07
12868;BME280;33517;49.866;8.320;2023-08-08T12:17:06;100349.06;;;29.14;32.79
12868;BME280;33517;49.866;8.320;2023-08-08T12:19:59;100356.69;;;29.35;32.01
12868;BME280;33517;49.866;8.320;2023-08-08T12:22:52;100346.06;;;28.63;31.82
12868;BME280;33517;49.866;8.320;2023-08-08T12:25:46;100356.28;;;28.71;31.81
12868;BME280;33517;49.866;8.320;2023-08-08T12:28:37;100355.56;;;27.78;32.74
12868;BME280;33517;49.866;8.320;2023-08-08T12:31:29;100339.59;;;27.12;34.07
12868;BME280;33517;49.866;8.320;2023-08-08T12:34:21;100351.03;;;26.44;34.96
12868;BME280;33517;49.866;8.320;2023-08-08T12:37:13;100348.91;;;26.71;34.72
12868;BME280;33517;49.866;8.320;2023-08-08T12:40:08;100339.63;;;27.07;33.53
12868;BME280;33517;49.866;8.320;2023-08-08T12:43:00;100340.78;;;26.46;34.33
12868;BME280;33517;49.866;8.320;2023-08-08T12:45:51;100331.75;;;25.65;35.33
12868;BME280;33517;49.866;8.320;2023-08-08T12:48:43;100346.06;;;25.09;35.93
12868;BME280;33517;49.866;8.320;2023-08-08T12:51:35;100347.53;;;26.08;35.41
12868;BME280;33517;49.866;8.320;2023-08-08T12:54:27;100336.69;;;25.93;35.19
12868;BME280;33517;49.866;8.320;2023-08-08T12:57:20;100348.28;;;25.84;35.34
12868;BME280;33517;49.866;8.320;2023-08-08T13:00:14;100350.72;;;26.00;35.40
12868;BME280;33517;49.866;8.320;2023-08-08T13:03:05;100345.22;;;25.65;36.26
12868;BME280;33517;49.866;8.320;2023-08-08T13:05:58;100351.56;;;24.82;37.48
12868;BME280;33517;49.866;8.320;2023-08-08T13:08:49;100341.81;;;24.44;38.10
12868;BME280;33517;49.866;8.320;2023-08-08T13:11:41;100340.63;;;24.67;38.17
12868;BME280;33517;49.866;8.320;2023-08-08T13:14:35;100332.81;;;24.97;37.30
12868;BME280;33517;49.866;8.320;2023-08-08T13:17:26;100322.44;;;24.74;37.07
12868;BME280;33517;49.866;8.320;2023-08-08T13:20:19;100324.34;;;24.42;37.67
12868;BME280;33517;49.866;8.320;2023-08-08T13:23:10;100326.88;;;24.00;38.35
12868;BME280;33517;49.866;8.320;2023-08-08T13:26:02;100319.91;;;24.62;38.25
12868;BME280;33517;49.866;8.320;2023-08-08T13:28:55;100317.44;;;24.98;37.83
12868;BME280;33517;49.866;8.320;2023-08-08T13:31:48;100311.22;;;24.92;37.19
12868;BME280;33517;49.866;8.320;2023-08-08T13:34:40;100308.09;;;25.15;37.51
12868;BME280;33517;49.866;8.320;2023-08-08T13:37:32;100316.28;;;25.35;37.73
12868;BME280;33517;49.866;8.320;2023-08-08T13:40:24;100318.06;;;25.15;37.90
12868;BME280;33517;49.866;8.320;2023-08-08T13:43:15;100317.19;;;25.51;37.55
12868;BME280;33517;49.866;8.320;2023-08-08T13:46:07;100311.84;;;25.86;36.59
12868;BME280;33517;49.866;8.320;2023-08-08T13:49:01;100304.41;;;25.31;36.75
12868;BME280;33517;49.866;8.320;2023-08-08T13:51:53;100307.13;;;24.80;38.17
12868;BME280;33517;49.866;8.320;2023-08-08T13:54:45;100312.94;;;24.66;38.45
12868;BME280;33517;49.866;8.320;2023-08-08T13:57:37;100313.31;;;24.43;39.21
12868;BME280;33517;49.866;8.320;2023-08-08T14:00:29;100298.31;;;24.57;38.82
12868;BME280;33517;49.866;8.320;2023-08-08T14:03:21;100303.03;;;24.40;38.49
12868;BME280;33517;49.866;8.320;2023-08-08T14:06:14;100297.44;;;24.42;38.79
12868;BME280;33517;49.866;8.320;2023-08-08T14:09:06;100304.59;;;24.68;38.79
12868;BME280;33517;49.866;8.320;2023-08-08T14:11:57;100291.09;;;25.05;38.78
12868;BME280;33517;49.866;8.320;2023-08-08T14:14:50;100297.50;;;24.94;39.13
12868;BME280;33517;49.866;8.320;2023-08-08T14:17:42;100300.16;;;24.52;39.76
12868;BME280;33517;49.866;8.320;2023-08-08T14:20:35;100307.38;;;24.10;40.35
12868;BME280;33517;49.866;8.320;2023-08-08T14:23:28;100317.41;;;23.66;41.27
12868;BME280;33517;49.866;8.320;2023-08-08T14:26:20;100316.34;;;23.02;43.08
12868;BME280;33517;49.866;8.320;2023-08-08T14:29:11;100314.50;;;22.53;43.85
12868;BME280;33517;49.866;8.320;2023-08-08T14:32:04;100317.03;;;22.26;44.67
12868;BME280;33517;49.866;8.320;2023-08-08T14:34:56;100324.06;;;21.99;45.74
12868;BME280;33517;49.866;8.320;2023-08-08T14:37:48;100316.59;;;21.84;46.30
12868;BME280;33517;49.866;8.320;2023-08-08T14:40:41;100315.63;;;21.90;46.82
12868;BME280;33517;49.866;8.320;2023-08-08T14:43:33;100318.31;;;21.90;47.17
12868;BME280;33517;49.866;8.320;2023-08-08T14:46:25;100326.72;;;21.82;47.81
12868;BME280;33517;49.866;8.320;2023-08-08T14:49:17;100327.81;;;21.98;47.48
12868;BME280;33517;49.866;8.320;2023-08-08T14:52:09;100325.56;;;22.07;47.59
12868;BME280;33517;49.866;8.320;2023-08-08T14:55:01;100327.09;;;22.03;47.63
12868;BME280;33517;49.866;8.320;2023-08-08T14:57:56;100337.66;;;22.09;47.67
12868;BME280;33517;49.866;8.320;2023-08-08T15:00:47;100335.97;;;22.20;47.55
12868;BME280;33517;49.866;8.320;2023-08-08T15:03:39;100338.34;;;22.33;47.28